sensor_id;sensor_type;location;lat;lon;timestamp;temperature;humidity
75363;DHT22;64122;51.988;5.892;2023-05-16T00:02:00;11.55;65.39
75363;DHT22;64122;51.988;5.892;2023-05-16T00:04:31;11.58;65.40
75363;DHT22;64122;51.988;5.892;2023-05-16T00:07:03;11.57;65.23
75363;DHT22;64122;51.988;5.892;2023-05-16T00:09:33;11.58;65.16
75363;DHT22;64122;51.988;5.892;2023-05-16T00:12:02;11.60;65.17
75363;DHT22;64122;51.988;5.892;2023-05-16T00:14:32;11.60;64.96
75363;DHT22;64122;51.988;5.892;2023-05-16T00:17:01;11.54;65.03
75363;DHT22;64122;51.988;5.892;2023-05-16T00:19:36;11.48;64.79
75363;DHT22;64122;51.988;5.892;2023-05-16T00:22:09;11.53;64.81
75363;DHT22;64122;51.988;5.892;2023-05-16T00:24:39;11.58;64.67
75363;DHT22;64122;51.988;5.892;2023-05-16T00:27:08;11.53;64.44
75363;DHT22;64122;51.988;5.892;2023-05-16T00:29:37;11.49;64.43
75363;DHT22;64122;51.988;5.892;2023-05-16T00:32:07;11.47;64.43
75363;DHT22;64122;51.988;5.892;2023-05-16T00:34:36;11.47;64.51
75363;DHT22;64122;51.988;5.892;2023-05-16T00:37:05;11.39;64.47
75363;DHT22;64122;51.988;5.892;2023-05-16T00:39:37;11.13;64.71
75363;DHT22;64122;51.988;5.892;2023-05-16T00:42:06;11.09;65.01
75363;DHT22;64122;51.988;5.892;2023-05-16T00:44:37;10.97;65.12
75363;DHT22;64122;51.988;5.892;2023-05-16T00:47:07;10.90;65.35
75363;DHT22;64122;51.988;5.892;2023-05-16T00:49:36;10.84;65.39
75363;DHT22;64122;51.988;5.892;2023-05-16T00:52:06;10.80;65.53
75363;DHT22;64122;51.988;5.892;2023-05-16T00:54:38;10.78;65.66
75363;DHT22;64122;51.988;5.892;2023-05-16T00:57:07;10.80;65.56
75363;DHT22;64122;51.988;5.892;2023-05-16T00:59:37;10.77;65.38
75363;DHT22;64122;51.988;5.892;2023-05-16T01:02:07;10.69;65.36
75363;DHT22;64122;51.988;5.892;2023-05-16T01:04:38;10.63;65.49
75363;DHT22;64122;51.988;5.892;2023-05-16T01:07:08;10.59;65.56
75363;DHT22;64122;51.988;5.892;2023-05-16T01:09:40;10.55;65.53
75363;DHT22;64122;51.988;5.892;2023-05-16T01:12:15;10.50;65.62
75363;DHT22;64122;51.988;5.892;2023-05-16T01:14:50;10.41;65.64
75363;DHT22;64122;51.988;5.892;2023-05-16T01:17:28;10.37;65.74
75363;DHT22;64122;51.988;5.892;2023-05-16T01:20:03;10.33;65.85
75363;DHT22;64122;51.988;5.892;2023-05-16T01:22:46;10.28;65.92
75363;DHT22;64122;51.988;5.892;2023-05-16T01:25:33;10.23;65.98
75363;DHT22;64122;51.988;5.892;2023-05-16T01:28:06;10.22;66.14
75363;DHT22;64122;51.988;5.892;2023-05-16T01:30:39;10.18;66.13
75363;DHT22;64122;51.988;5.892;2023-05-16T01:33:09;10.12;66.26
75363;DHT22;64122;51.988;5.892;2023-05-16T01:35:42;10.07;66.27
75363;DHT22;64122;51.988;5.892;2023-05-16T01:38:20;10.03;66.35
75363;DHT22;64122;51.988;5.892;2023-05-16T01:40:54;10.00;66.43
75363;DHT22;64122;51.988;5.892;2023-05-16T01:43:32;9.99;66.47
75363;DHT22;64122;51.988;5.892;2023-05-16T01:46:06;9.96;66.59
75363;DHT22;64122;51.988;5.892;2023-05-16T01:48:43;9.95;66.52
75363;DHT22;64122;51.988;5.892;2023-05-16T01:51:18;9.94;66.51
75363;DHT22;64122;51.988;5.892;2023-05-16T01:53:49;9.91;66.52
75363;DHT22;64122;51.988;5.892;2023-05-16T01:56:20;9.88;66.81
75363;DHT22;64122;51.988;5.892;2023-05-16T01:58:53;9.85;66.68
75363;DHT22;64122;51.988;5.892;2023-05-16T02:01:23;9.83;66.72
75363;DHT22;64122;51.988;5.892;2023-05-16T02:03:52;9.83;66.69
75363;DHT22;64122;51.988;5.892;2023-05-16T02:06:23;9.84;66.65
75363;DHT22;64122;51.988;5.892;2023-05-16T02:08:52;9.84;66.59
75363;DHT22;64122;51.988;5.892;2023-05-16T02:11:21;9.86;66.73
75363;DHT22;64122;51.988;5.892;2023-05-16T02:13:54;9.88;66.45
75363;DHT22;64122;51.988;5.892;2023-05-16T02:16:23;9.91;66.38
75363;DHT22;64122;51.988;5.892;2023-05-16T02:18:52;9.95;66.45
75363;DHT22;64122;51.988;5.892;2023-05-16T02:21:21;9.98;66.15
75363;DHT22;64122;51.988;5.892;2023-05-16T02:23:50;9.97;66.28
75363;DHT22;64122;51.988;5.892;2023-05-16T02:26:20;10.01;66.32
75363;DHT22;64122;51.988;5.892;2023-05-16T02:28:49;10.01;66.14
75363;DHT22;64122;51.988;5.892;2023-05-16T02:31:29;10.00;66.11
75363;DHT22;64122;51.988;5.892;2023-05-16T02:33:59;10.06;66.06
75363;DHT22;64122;51.988;5.892;2023-05-16T02:36:28;10.07;65.90
75363;DHT22;64122;51.988;5.892;2023-05-16T02:38:59;10.14;66.05
75363;DHT22;64122;51.988;5.892;2023-05-16T02:41:29;10.12;65.75
75363;DHT22;64122;51.988;5.892;2023-05-16T02:43:58;10.09;65.85
75363;DHT22;64122;51.988;5.892;2023-05-16T02:46:32;10.03;65.98
75363;DHT22;64122;51.988;5.892;2023-05-16T02:49:03;9.96;66.14
75363;DHT22;64122;51.988;5.892;2023-05-16T02:51:32;9.91;66.26
75363;DHT22;64122;51.988;5.892;2023-05-16T02:54:02;9.88;66.43
75363;DHT22;64122;51.988;5.892;2023-05-16T02:56:33;9.84;66.60
75363;DHT22;64122;51.988;5.892;2023-05-16T02:59:02;9.78;66.73
75363;DHT22;64122;51.988;5.892;2023-05-16T03:01:34;9.75;66.92
75363;DHT22;64122;51.988;5.892;2023-05-16T03:04:04;9.71;67.08
75363;DHT22;64122;51.988;5.892;2023-05-16T03:06:34;9.74;67.12
75363;DHT22;64122;51.988;5.892;2023-05-16T03:09:03;9.74;67.01
75363;DHT22;64122;51.988;5.892;2023-05-16T03:11:32;9.74;67.09
75363;DHT22;64122;51.988;5.892;2023-05-16T03:14:02;9.77;66.98
75363;DHT22;64122;51.988;5.892;2023-05-16T03:16:34;9.76;67.07
75363;DHT22;64122;51.988;5.892;2023-05-16T03:19:04;9.82;66.94
75363;DHT22;64122;51.988;5.892;2023-05-16T03:21:33;9.89;66.81
75363;DHT22;64122;51.988;5.892;2023-05-16T03:24:02;9.95;66.73
75363;DHT22;64122;51.988;5.892;2023-05-16T03:26:32;10.01;66.38
75363;DHT22;64122;51.988;5.892;2023-05-16T03:29:01;9.99;66.34
75363;DHT22;64122;51.988;5.892;2023-05-16T03:31:33;9.94;66.30
75363;DHT22;64122;51.988;5.892;2023-05-16T03:34:03;9.95;66.27
75363;DHT22;64122;51.988;5.892;2023-05-16T03:36:33;9.92;66.36
75363;DHT22;64122;51.988;5.892;2023-05-16T03:39:02;9.94;66.33
75363;DHT22;64122;51.988;5.892;2023-05-16T03:41:32;9.98;66.14
75363;DHT22;64122;51.988;5.892;2023-05-16T03:44:02;10.04;66.06
75363;DHT22;64122;51.988;5.892;2023-05-16T03:46:34;10.07;66.08
75363;DHT22;64122;51.988;5.892;2023-05-16T03:49:03;10.11;65.82
75363;DHT22;64122;51.988;5.892;2023-05-16T03:51:32;10.16;65.75
75363;DHT22;64122;51.988;5.892;2023-05-16T03:54:01;10.25;65.72
75363;DHT22;64122;51.988;5.892;2023-05-16T03:56:31;10.36;65.31
75363;DHT22;64122;51.988;5.892;2023-05-16T03:59:00;10.46;65.13
75363;DHT22;64122;51.988;5.892;2023-05-16T04:01:29;10.55;64.95
75363;DHT22;64122;51.988;5.892;2023-05-16T04:04:01;10.63;64.74
75363;DHT22;64122;51.988;5.892;2023-05-16T04:06:30;10.67;64.68
75363;DHT22;64122;51.988;5.892;2023-05-16T04:08:59;10.69;64.74
75363;DHT22;64122;51.988;5.892;2023-05-16T04:11:29;10.71;64.74
75363;DHT22;64122;51.988;5.892;2023-05-16T04:13:59;10.73;64.79
75363;DHT22;64122;51.988;5.892;2023-05-16T04:16:28;10.77;64.81
75363;DHT22;64122;51.988;5.892;2023-05-16T04:18:58;10.81;64.85
75363;DHT22;64122;51.988;5.892;2023-05-16T04:21:29;10.80;64.83
75363;DHT22;64122;51.988;5.892;2023-05-16T04:23:59;10.77;65.01
75363;DHT22;64122;51.988;5.892;2023-05-16T04:26:28;10.81;64.97
75363;DHT22;64122;51.988;5.892;2023-05-16T04:28:57;10.83;65.00
75363;DHT22;64122;51.988;5.892;2023-05-16T04:31:27;10.83;65.06
75363;DHT22;64122;51.988;5.892;2023-05-16T04:33:56;10.85;65.09
75363;DHT22;64122;51.988;5.892;2023-05-16T04:36:29;10.86;64.88
75363;DHT22;64122;51.988;5.892;2023-05-16T04:39:00;10.87;65.01
75363;DHT22;64122;51.988;5.892;2023-05-16T04:41:29;10.88;64.99
75363;DHT22;64122;51.988;5.892;2023-05-16T04:44:00;10.92;65.05
75363;DHT22;64122;51.988;5.892;2023-05-16T04:46:31;10.95;65.00
75363;DHT22;64122;51.988;5.892;2023-05-16T04:49:00;10.98;64.89
75363;DHT22;64122;51.988;5.892;2023-05-16T04:51:32;11.01;64.73
75363;DHT22;64122;51.988;5.892;2023-05-16T04:54:01;11.02;64.72
75363;DHT22;64122;51.988;5.892;2023-05-16T04:56:30;11.08;64.69
75363;DHT22;64122;51.988;5.892;2023-05-16T04:58:59;11.15;64.40
75363;DHT22;64122;51.988;5.892;2023-05-16T05:01:29;11.20;64.11
75363;DHT22;64122;51.988;5.892;2023-05-16T05:03:58;11.22;64.26
75363;DHT22;64122;51.988;5.892;2023-05-16T05:06:28;11.28;64.37
75363;DHT22;64122;51.988;5.892;2023-05-16T05:08:59;11.29;64.08
75363;DHT22;64122;51.988;5.892;2023-05-16T05:11:31;11.38;63.90
75363;DHT22;64122;51.988;5.892;2023-05-16T05:14:00;11.55;63.69
75363;DHT22;64122;51.988;5.892;2023-05-16T05:16:31;11.70;63.18
75363;DHT22;64122;51.988;5.892;2023-05-16T05:19:00;11.82;62.82
75363;DHT22;64122;51.988;5.892;2023-05-16T05:21:30;11.93;62.49
75363;DHT22;64122;51.988;5.892;2023-05-16T05:24:03;12.03;62.18
75363;DHT22;64122;51.988;5.892;2023-05-16T05:26:32;12.19;62.15
75363;DHT22;64122;51.988;5.892;2023-05-16T05:29:01;12.36;61.04
75363;DHT22;64122;51.988;5.892;2023-05-16T05:31:31;12.41;60.76
75363;DHT22;64122;51.988;5.892;2023-05-16T05:34:01;12.48;60.87
75363;DHT22;64122;51.988;5.892;2023-05-16T05:36:31;12.45;60.78
75363;DHT22;64122;51.988;5.892;2023-05-16T05:39:03;12.46;60.57
75363;DHT22;64122;51.988;5.892;2023-05-16T05:41:32;12.48;60.43
75363;DHT22;64122;51.988;5.892;2023-05-16T05:44:01;12.55;60.33
75363;DHT22;64122;51.988;5.892;2023-05-16T05:46:31;12.59;60.13
75363;DHT22;64122;51.988;5.892;2023-05-16T05:49:01;12.61;59.95
75363;DHT22;64122;51.988;5.892;2023-05-16T05:51:31;12.66;60.05
75363;DHT22;64122;51.988;5.892;2023-05-16T05:54:03;12.71;59.84
75363;DHT22;64122;51.988;5.892;2023-05-16T05:56:32;12.77;59.67
75363;DHT22;64122;51.988;5.892;2023-05-16T05:59:02;12.82;59.38
75363;DHT22;64122;51.988;5.892;2023-05-16T06:01:31;12.89;59.39
75363;DHT22;64122;51.988;5.892;2023-05-16T06:04:00;13.01;59.41
75363;DHT22;64122;51.988;5.892;2023-05-16T06:06:30;13.09;58.93
75363;DHT22;64122;51.988;5.892;2023-05-16T06:08:59;13.15;58.59
75363;DHT22;64122;51.988;5.892;2023-05-16T06:11:31;13.22;58.48
75363;DHT22;64122;51.988;5.892;2023-05-16T06:14:00;13.36;58.45
75363;DHT22;64122;51.988;5.892;2023-05-16T06:16:30;13.54;58.01
75363;DHT22;64122;51.988;5.892;2023-05-16T06:18:59;13.84;57.33
75363;DHT22;64122;51.988;5.892;2023-05-16T06:21:28;14.11;56.85
75363;DHT22;64122;51.988;5.892;2023-05-16T06:23:58;14.22;56.06
75363;DHT22;64122;51.988;5.892;2023-05-16T06:26:31;14.35;55.92
75363;DHT22;64122;51.988;5.892;2023-05-16T06:29:01;14.49;55.58
75363;DHT22;64122;51.988;5.892;2023-05-16T06:31:30;15.01;53.66
75363;DHT22;64122;51.988;5.892;2023-05-16T06:33:59;14.84;54.07
75363;DHT22;64122;51.988;5.892;2023-05-16T06:36:29;14.83;54.16
75363;DHT22;64122;51.988;5.892;2023-05-16T06:38:58;14.81;54.01
75363;DHT22;64122;51.988;5.892;2023-05-16T06:41:27;14.52;54.41
75363;DHT22;64122;51.988;5.892;2023-05-16T06:44:00;14.27;54.90
75363;DHT22;64122;51.988;5.892;2023-05-16T06:46:30;14.23;55.07
75363;DHT22;64122;51.988;5.892;2023-05-16T06:48:59;14.17;55.39
75363;DHT22;64122;51.988;5.892;2023-05-16T06:51:28;14.24;55.42
75363;DHT22;64122;51.988;5.892;2023-05-16T06:53:57;14.40;55.33
75363;DHT22;64122;51.988;5.892;2023-05-16T06:56:27;14.59;54.88
75363;DHT22;64122;51.988;5.892;2023-05-16T06:58:59;14.77;54.52
75363;DHT22;64122;51.988;5.892;2023-05-16T07:01:29;15.09;54.40
75363;DHT22;64122;51.988;5.892;2023-05-16T07:03:58;15.74;52.69
75363;DHT22;64122;51.988;5.892;2023-05-16T07:06:27;16.05;51.56
75363;DHT22;64122;51.988;5.892;2023-05-16T07:08:57;17.43;47.22
75363;DHT22;64122;51.988;5.892;2023-05-16T07:11:27;18.93;43.64
75363;DHT22;64122;51.988;5.892;2023-05-16T07:13:59;19.63;42.75
75363;DHT22;64122;51.988;5.892;2023-05-16T07:16:28;20.96;40.12
75363;DHT22;64122;51.988;5.892;2023-05-16T07:18:57;21.51;39.04
75363;DHT22;64122;51.988;5.892;2023-05-16T07:21:27;20.36;39.23
75363;DHT22;64122;51.988;5.892;2023-05-16T07:23:56;19.89;39.42
75363;DHT22;64122;51.988;5.892;2023-05-16T07:26:26;19.39;39.79
75363;DHT22;64122;51.988;5.892;2023-05-16T07:28:59;18.74;40.91
75363;DHT22;64122;51.988;5.892;2023-05-16T07:31:29;17.77;42.36
75363;DHT22;64122;51.988;5.892;2023-05-16T07:33:59;17.03;44.05
75363;DHT22;64122;51.988;5.892;2023-05-16T07:36:28;17.69;43.39
75363;DHT22;64122;51.988;5.892;2023-05-16T07:38:57;18.19;42.10
75363;DHT22;64122;51.988;5.892;2023-05-16T07:41:27;20.27;37.81
75363;DHT22;64122;51.988;5.892;2023-05-16T07:43:59;20.87;36.33
75363;DHT22;64122;51.988;5.892;2023-05-16T07:46:28;20.00;37.59
75363;DHT22;64122;51.988;5.892;2023-05-16T07:48:58;19.59;38.46
75363;DHT22;64122;51.988;5.892;2023-05-16T07:51:27;18.87;39.99
75363;DHT22;64122;51.988;5.892;2023-05-16T07:53:57;18.42;40.66
75363;DHT22;64122;51.988;5.892;2023-05-16T07:56:26;18.91;39.72
75363;DHT22;64122;51.988;5.892;2023-05-16T07:58:55;20.15;38.01
75363;DHT22;64122;51.988;5.892;2023-05-16T08:01:27;21.39;35.47
75363;DHT22;64122;51.988;5.892;2023-05-16T08:03:56;21.74;34.90
75363;DHT22;64122;51.988;5.892;2023-05-16T08:06:26;22.82;33.17
75363;DHT22;64122;51.988;5.892;2023-05-16T08:08:55;24.28;29.75
75363;DHT22;64122;51.988;5.892;2023-05-16T08:11:24;25.33;28.26
75363;DHT22;64122;51.988;5.892;2023-05-16T08:13:56;26.48;26.71
75363;DHT22;64122;51.988;5.892;2023-05-16T08:16:28;25.97;27.45
75363;DHT22;64122;51.988;5.892;2023-05-16T08:18:58;25.47;27.84
75363;DHT22;64122;51.988;5.892;2023-05-16T08:21:30;25.33;27.88
75363;DHT22;64122;51.988;5.892;2023-05-16T08:23:59;23.45;30.30
75363;DHT22;64122;51.988;5.892;2023-05-16T08:26:31;22.06;32.45
75363;DHT22;64122;51.988;5.892;2023-05-16T08:29:02;20.88;35.18
75363;DHT22;64122;51.988;5.892;2023-05-16T08:31:34;19.67;36.84
75363;DHT22;64122;51.988;5.892;2023-05-16T08:34:03;18.77;38.93
75363;DHT22;64122;51.988;5.892;2023-05-16T08:36:34;18.70;39.42
75363;DHT22;64122;51.988;5.892;2023-05-16T08:39:04;21.08;35.34
75363;DHT22;64122;51.988;5.892;2023-05-16T08:41:36;23.45;32.29
75363;DHT22;64122;51.988;5.892;2023-05-16T08:44:05;25.28;28.80
75363;DHT22;64122;51.988;5.892;2023-05-16T08:46:39;26.03;27.94
75363;DHT22;64122;51.988;5.892;2023-05-16T08:49:09;25.83;27.85
75363;DHT22;64122;51.988;5.892;2023-05-16T08:51:39;25.65;27.23
75363;DHT22;64122;51.988;5.892;2023-05-16T08:54:12;25.89;26.33
75363;DHT22;64122;51.988;5.892;2023-05-16T08:56:42;25.30;26.98
75363;DHT22;64122;51.988;5.892;2023-05-16T08:59:13;26.13;25.91
75363;DHT22;64122;51.988;5.892;2023-05-16T09:01:45;26.71;24.79
75363;DHT22;64122;51.988;5.892;2023-05-16T09:04:15;27.17;23.39
75363;DHT22;64122;51.988;5.892;2023-05-16T09:06:44;27.78;22.47
75363;DHT22;64122;51.988;5.892;2023-05-16T09:09:14;27.67;21.56
75363;DHT22;64122;51.988;5.892;2023-05-16T09:11:43;26.96;22.76
75363;DHT22;64122;51.988;5.892;2023-05-16T09:14:12;25.81;24.40
75363;DHT22;64122;51.988;5.892;2023-05-16T09:16:42;24.64;26.18
75363;DHT22;64122;51.988;5.892;2023-05-16T09:19:14;23.71;28.20
75363;DHT22;64122;51.988;5.892;2023-05-16T09:21:43;22.95;29.45
75363;DHT22;64122;51.988;5.892;2023-05-16T09:24:12;21.57;30.48
75363;DHT22;64122;51.988;5.892;2023-05-16T09:26:43;20.46;32.54
75363;DHT22;64122;51.988;5.892;2023-05-16T09:29:13;19.48;34.86
75363;DHT22;64122;51.988;5.892;2023-05-16T09:31:42;18.67;36.89
75363;DHT22;64122;51.988;5.892;2023-05-16T09:34:14;18.03;37.66
75363;DHT22;64122;51.988;5.892;2023-05-16T09:36:43;17.48;38.76
75363;DHT22;64122;51.988;5.892;2023-05-16T09:39:14;17.22;39.75
75363;DHT22;64122;51.988;5.892;2023-05-16T09:41:43;17.59;39.52
75363;DHT22;64122;51.988;5.892;2023-05-16T09:44:13;19.11;36.93
75363;DHT22;64122;51.988;5.892;2023-05-16T09:46:42;20.47;34.73
75363;DHT22;64122;51.988;5.892;2023-05-16T09:49:15;21.39;32.24
75363;DHT22;64122;51.988;5.892;2023-05-16T09:51:44;22.19;31.92
75363;DHT22;64122;51.988;5.892;2023-05-16T09:54:14;22.35;30.82
75363;DHT22;64122;51.988;5.892;2023-05-16T09:56:49;21.52;31.72
75363;DHT22;64122;51.988;5.892;2023-05-16T09:59:19;20.42;33.44
75363;DHT22;64122;51.988;5.892;2023-05-16T10:01:49;19.43;35.42
75363;DHT22;64122;51.988;5.892;2023-05-16T10:04:23;19.48;34.46
75363;DHT22;64122;51.988;5.892;2023-05-16T10:06:54;20.51;32.83
75363;DHT22;64122;51.988;5.892;2023-05-16T10:09:24;21.33;31.97
75363;DHT22;64122;51.988;5.892;2023-05-16T10:12:06;21.68;30.83
75363;DHT22;64122;51.988;5.892;2023-05-16T10:14:59;21.35;30.98
75363;DHT22;64122;51.988;5.892;2023-05-16T10:17:31;20.37;32.28
75363;DHT22;64122;51.988;5.892;2023-05-16T10:20:04;19.84;34.31
75363;DHT22;64122;51.988;5.892;2023-05-16T10:22:35;19.16;35.33
75363;DHT22;64122;51.988;5.892;2023-05-16T10:25:08;18.67;36.72
75363;DHT22;64122;51.988;5.892;2023-05-16T10:27:49;18.85;36.78
75363;DHT22;64122;51.988;5.892;2023-05-16T10:30:19;19.29;35.83
75363;DHT22;64122;51.988;5.892;2023-05-16T10:32:49;19.56;35.45
75363;DHT22;64122;51.988;5.892;2023-05-16T10:35:22;19.79;33.65
75363;DHT22;64122;51.988;5.892;2023-05-16T10:37:52;19.75;33.69
75363;DHT22;64122;51.988;5.892;2023-05-16T10:40:22;19.80;34.06
75363;DHT22;64122;51.988;5.892;2023-05-16T10:42:55;19.72;33.34
75363;DHT22;64122;51.988;5.892;2023-05-16T10:45:25;19.65;32.48
75363;DHT22;64122;51.988;5.892;2023-05-16T10:47:56;19.84;32.59
75363;DHT22;64122;51.988;5.892;2023-05-16T10:50:36;20.09;32.76
75363;DHT22;64122;51.988;5.892;2023-05-16T10:53:14;19.90;33.13
75363;DHT22;64122;51.988;5.892;2023-05-16T10:55:45;19.60;34.02
75363;DHT22;64122;51.988;5.892;2023-05-16T10:58:23;19.16;34.91
75363;DHT22;64122;51.988;5.892;2023-05-16T11:01:13;18.72;35.73
75363;DHT22;64122;51.988;5.892;2023-05-16T11:04:07;18.94;35.56
75363;DHT22;64122;51.988;5.892;2023-05-16T11:06:50;19.36;35.24
75363;DHT22;64122;51.988;5.892;2023-05-16T11:09:23;19.54;33.62
75363;DHT22;64122;51.988;5.892;2023-05-16T11:11:58;19.08;34.16
75363;DHT22;64122;51.988;5.892;2023-05-16T11:14:36;18.87;33.27
75363;DHT22;64122;51.988;5.892;2023-05-16T11:17:08;18.78;32.70
75363;DHT22;64122;51.988;5.892;2023-05-16T11:19:42;18.73;33.16
75363;DHT22;64122;51.988;5.892;2023-05-16T11:22:22;18.68;33.12
75363;DHT22;64122;51.988;5.892;2023-05-16T11:24:57;18.95;33.18
75363;DHT22;64122;51.988;5.892;2023-05-16T11:27:31;19.53;33.44
75363;DHT22;64122;51.988;5.892;2023-05-16T11:30:10;20.10;32.92
75363;DHT22;64122;51.988;5.892;2023-05-16T11:32:41;20.36;32.61
75363;DHT22;64122;51.988;5.892;2023-05-16T11:35:13;20.44;31.53
75363;DHT22;64122;51.988;5.892;2023-05-16T11:37:46;20.46;31.57
75363;DHT22;64122;51.988;5.892;2023-05-16T11:40:16;20.35;31.67
75363;DHT22;64122;51.988;5.892;2023-05-16T11:42:46;20.36;31.66
75363;DHT22;64122;51.988;5.892;2023-05-16T11:45:18;20.31;31.93
75363;DHT22;64122;51.988;5.892;2023-05-16T11:47:48;20.05;31.56
75363;DHT22;64122;51.988;5.892;2023-05-16T11:50:19;19.75;31.31
75363;DHT22;64122;51.988;5.892;2023-05-16T11:52:52;19.35;31.70
75363;DHT22;64122;51.988;5.892;2023-05-16T11:55:23;19.15;32.87
75363;DHT22;64122;51.988;5.892;2023-05-16T11:57:53;19.01;33.38
75363;DHT22;64122;51.988;5.892;2023-05-16T12:00:24;19.08;33.72
75363;DHT22;64122;51.988;5.892;2023-05-16T12:03:00;19.36;33.31
75363;DHT22;64122;51.988;5.892;2023-05-16T12:05:29;19.46;33.04
75363;DHT22;64122;51.988;5.892;2023-05-16T12:08:02;19.47;33.02
75363;DHT22;64122;51.988;5.892;2023-05-16T12:10:32;19.51;32.95
75363;DHT22;64122;51.988;5.892;2023-05-16T12:13:01;19.45;32.65
75363;DHT22;64122;51.988;5.892;2023-05-16T12:15:32;19.26;32.91
75363;DHT22;64122;51.988;5.892;2023-05-16T12:18:02;19.28;32.96
75363;DHT22;64122;51.988;5.892;2023-05-16T12:20:31;19.36;33.14
75363;DHT22;64122;51.988;5.892;2023-05-16T12:23:03;19.56;32.99
75363;DHT22;64122;51.988;5.892;2023-05-16T12:25:33;19.75;31.82
75363;DHT22;64122;51.988;5.892;2023-05-16T12:28:04;19.73;31.93
75363;DHT22;64122;51.988;5.892;2023-05-16T12:30:35;19.69;32.05
75363;DHT22;64122;51.988;5.892;2023-05-16T12:33:09;19.56;32.41
75363;DHT22;64122;51.988;5.892;2023-05-16T12:35:39;19.41;32.78
75363;DHT22;64122;51.988;5.892;2023-05-16T12:38:13;19.56;32.65
75363;DHT22;64122;51.988;5.892;2023-05-16T12:40:43;19.45;32.25
75363;DHT22;64122;51.988;5.892;2023-05-16T12:43:13;19.43;32.25
75363;DHT22;64122;51.988;5.892;2023-05-16T12:45:49;19.13;32.71
75363;DHT22;64122;51.988;5.892;2023-05-16T12:48:18;18.97;33.38
75363;DHT22;64122;51.988;5.892;2023-05-16T12:50:48;18.95;33.41
75363;DHT22;64122;51.988;5.892;2023-05-16T12:53:21;18.82;33.74
75363;DHT22;64122;51.988;5.892;2023-05-16T12:55:50;18.50;34.46
75363;DHT22;64122;51.988;5.892;2023-05-16T12:58:19;18.24;35.21
75363;DHT22;64122;51.988;5.892;2023-05-16T13:00:48;18.21;35.70
75363;DHT22;64122;51.988;5.892;2023-05-16T13:03:18;18.30;35.86
75363;DHT22;64122;51.988;5.892;2023-05-16T13:05:47;18.28;36.40
75363;DHT22;64122;51.988;5.892;2023-05-16T13:08:20;17.92;37.38
75363;DHT22;64122;51.988;5.892;2023-05-16T13:10:50;17.78;37.91
75363;DHT22;64122;51.988;5.892;2023-05-16T13:13:19;17.77;38.28
75363;DHT22;64122;51.988;5.892;2023-05-16T13:15:48;17.80;38.16
75363;DHT22;64122;51.988;5.892;2023-05-16T13:18:17;17.96;37.93
75363;DHT22;64122;51.988;5.892;2023-05-16T13:20:47;18.36;37.30
75363;DHT22;64122;51.988;5.892;2023-05-16T13:23:16;18.69;36.85
75363;DHT22;64122;51.988;5.892;2023-05-16T13:25:48;18.96;36.23
75363;DHT22;64122;51.988;5.892;2023-05-16T13:28:18;19.24;35.63
75363;DHT22;64122;51.988;5.892;2023-05-16T13:30:47;19.37;35.40
75363;DHT22;64122;51.988;5.892;2023-05-16T13:33:17;19.52;35.35
75363;DHT22;64122;51.988;5.892;2023-05-16T13:35:46;19.36;35.26
75363;DHT22;64122;51.988;5.892;2023-05-16T13:38:16;19.03;35.77
75363;DHT22;64122;51.988;5.892;2023-05-16T13:40:48;18.92;36.36
75363;DHT22;64122;51.988;5.892;2023-05-16T13:43:17;18.66;37.01
75363;DHT22;64122;51.988;5.892;2023-05-16T13:45:47;18.51;37.26
75363;DHT22;64122;51.988;5.892;2023-05-16T13:48:16;18.35;37.85
75363;DHT22;64122;51.988;5.892;2023-05-16T13:50:45;18.19;38.40
75363;DHT22;64122;51.988;5.892;2023-05-16T13:53:15;18.11;38.72
75363;DHT22;64122;51.988;5.892;2023-05-16T13:55:44;17.99;38.90
75363;DHT22;64122;51.988;5.892;2023-05-16T13:58:16;17.74;39.36
75363;DHT22;64122;51.988;5.892;2023-05-16T14:00:45;17.63;39.84
75363;DHT22;64122;51.988;5.892;2023-05-16T14:03:16;17.46;40.41
75363;DHT22;64122;51.988;5.892;2023-05-16T14:05:45;17.43;40.65
75363;DHT22;64122;51.988;5.892;2023-05-16T14:08:14;17.31;40.84
75363;DHT22;64122;51.988;5.892;2023-05-16T14:10:43;17.19;41.08
75363;DHT22;64122;51.988;5.892;2023-05-16T14:13:15;17.18;41.27
75363;DHT22;64122;51.988;5.892;2023-05-16T14:15:45;17.11;41.27
75363;DHT22;64122;51.988;5.892;2023-05-16T14:18:14;16.99;41.27
75363;DHT22;64122;51.988;5.892;2023-05-16T14:20:43;16.92;41.61
75363;DHT22;64122;51.988;5.892;2023-05-16T14:23:12;16.96;41.76
75363;DHT22;64122;51.988;5.892;2023-05-16T14:25:41;16.87;41.93
75363;DHT22;64122;51.988;5.892;2023-05-16T14:28:11;16.82;42.11
75363;DHT22;64122;51.988;5.892;2023-05-16T14:30:43;16.93;42.04
75363;DHT22;64122;51.988;5.892;2023-05-16T14:33:12;16.91;42.37
75363;DHT22;64122;51.988;5.892;2023-05-16T14:35:41;17.03;42.20
75363;DHT22;64122;51.988;5.892;2023-05-16T14:38:11;17.25;41.87
75363;DHT22;64122;51.988;5.892;2023-05-16T14:40:40;17.46;41.87
75363;DHT22;64122;51.988;5.892;2023-05-16T14:43:09;17.52;41.50
75363;DHT22;64122;51.988;5.892;2023-05-16T14:45:39;17.35;42.03
75363;DHT22;64122;51.988;5.892;2023-05-16T14:48:10;17.34;42.22
75363;DHT22;64122;51.988;5.892;2023-05-16T14:50:40;17.37;41.90
75363;DHT22;64122;51.988;5.892;2023-05-16T14:53:09;17.45;41.82
75363;DHT22;64122;51.988;5.892;2023-05-16T14:55:38;17.54;41.60
75363;DHT22;64122;51.988;5.892;2023-05-16T14:58:07;17.65;41.22
75363;DHT22;64122;51.988;5.892;2023-05-16T15:00:37;17.55;40.68
75363;DHT22;64122;51.988;5.892;2023-05-16T15:03:06;17.51;40.67
75363;DHT22;64122;51.988;5.892;2023-05-16T15:05:37;17.35;40.96
75363;DHT22;64122;51.988;5.892;2023-05-16T15:08:07;17.28;41.11
75363;DHT22;64122;51.988;5.892;2023-05-16T15:10:36;17.19;41.24
75363;DHT22;64122;51.988;5.892;2023-05-16T15:13:05;16.99;41.66
75363;DHT22;64122;51.988;5.892;2023-05-16T15:15:34;16.93;42.00
75363;DHT22;64122;51.988;5.892;2023-05-16T15:18:05;16.84;42.01
75363;DHT22;64122;51.988;5.892;2023-05-16T15:20:38;16.73;42.17
75363;DHT22;64122;51.988;5.892;2023-05-16T15:23:08;16.72;42.32
75363;DHT22;64122;51.988;5.892;2023-05-16T15:25:37;16.64;42.48
75363;DHT22;64122;51.988;5.892;2023-05-16T15:28:07;16.74;42.74
75363;DHT22;64122;51.988;5.892;2023-05-16T15:30:36;16.88;42.41
75363;DHT22;64122;51.988;5.892;2023-05-16T15:33:05;16.96;42.23
75363;DHT22;64122;51.988;5.892;2023-05-16T15:35:34;16.91;42.26
75363;DHT22;64122;51.988;5.892;2023-05-16T15:38:06;16.89;42.65
75363;DHT22;64122;51.988;5.892;2023-05-16T15:40:36;16.92;42.30
75363;DHT22;64122;51.988;5.892;2023-05-16T15:43:05;16.86;42.33
75363;DHT22;64122;51.988;5.892;2023-05-16T15:45:34;16.78;42.45
75363;DHT22;64122;51.988;5.892;2023-05-16T15:48:04;16.76;42.66
75363;DHT22;64122;51.988;5.892;2023-05-16T15:50:34;16.76;42.70
75363;DHT22;64122;51.988;5.892;2023-05-16T15:53:06;16.75;42.31
75363;DHT22;64122;51.988;5.892;2023-05-16T15:55:35;16.69;42.58